Rochester Mills, Pennsylvania
Current Conditions -  °F | °C
As of 3:55 PM on Tuesday 21 Oct 2014 (Local Time) from KIDI Reporting Station
Scattered Clouds Scattered Clouds  
Wind Chill: 54°   Ceiling: Unl
Heat Index: 54°   Visibility: 10mi
Dew Point: 43°   Wind: 8mph
Humidity: 67%   Direction: 340°NNW
Pressure: 29.91"   Gusts: 16mph
Location:  40.82°N, 78.99°W
Report Text: KIDI 211955Z AUTO 34007G14KT 10SM FEW026 FEW034 SCT046 12/06 A2991 RMK A01
Loading
Personal Weather Stations






























Interactive Weather Map
Tropical Storm Tracking
New forecast layout! Learn more

10-Day Weather Forecast

Advertisements
Track Severe Weather on mobile